Time;durP1;ratioP1;P1;durP2;ratioP2;P2;SDS_P1;SDS_P2;PMS_P1;PMS_P2;Temp;Humidity;BMP_temperature;BMP_pressure;BME280_temperature;BME280_humidity;BME280_pressure;Samples;Min_cycle;Max_cycle;Signal;HPM_P1;HPM_P2
2022/12/06 00:09:32;;;;;;;1.12;0.70;;;;;;;10.24;67.86;100765.03;18432227;32;20093;-58
2022/12/06 00:19:36;;;;;;;3.45;3.15;;;;;;;10.18;68.06;100754.59;18431659;32;20101;-58
2022/12/06 00:29:40;;;;;;;1.67;0.90;;;;;;;10.30;67.90;100751.19;18430032;32;20107;-58
2022/12/06 00:39:44;;;;;;;0.50;0.50;;;;;;;10.08;68.87;100738.00;18430886;32;20112;-58
2022/12/06 00:49:47;;;;;;;0.93;0.93;;;;;;;10.05;69.17;100738.87;18431061;32;20146;-58
2022/12/06 00:59:52;;;;;;;1.25;1.15;;;;;;;9.22;70.65;100745.25;18429585;32;20093;-58
2022/12/06 01:09:55;;;;;;;0.60;0.60;;;;;;;8.89;71.94;100720.62;18429264;32;20158;-58
2022/12/06 01:19:59;;;;;;;1.98;1.37;;;;;;;8.03;74.68;100690.12;18428324;32;20475;-58
2022/12/06 01:30:04;;;;;;;0.60;0.60;;;;;;;8.27;74.91;100679.16;18427556;32;20150;-58
2022/12/06 01:40:10;;;;;;;2.83;1.98;;;;;;;8.93;72.55;100683.38;18429806;32;20081;-58
2022/12/06 01:50:16;;;;;;;0.62;0.62;;;;;;;9.16;70.85;100665.31;18437337;32;20142;-57
2022/12/06 02:00:21;;;;;;;1.15;1.15;;;;;;;8.15;74.82;100645.22;18435555;32;20154;-57
2022/12/06 02:10:24;;;;;;;0.77;0.70;;;;;;;7.30;77.29;100613.78;18435538;32;20143;-58
2022/12/06 02:20:32;;;;;;;0.40;0.40;;;;;;;7.61;75.83;100599.50;18435171;32;20374;-58
2022/12/06 02:30:45;;;;;;;0.80;0.80;;;;;;;8.60;72.99;100617.09;18434640;32;20124;-58
2022/12/06 02:40:52;;;;;;;1.35;1.27;;;;;;;9.11;70.61;100685.25;18435632;32;20465;-58
2022/12/06 02:50:59;;;;;;;1.15;1.08;;;;;;;8.96;70.86;100659.94;18434024;32;20115;-57
2022/12/06 03:01:04;;;;;;;0.52;0.52;;;;;;;9.18;70.11;100659.25;18434323;32;20436;-58
2022/12/06 03:11:08;;;;;;;0.70;0.70;;;;;;;9.40;69.28;100681.13;18433956;32;20092;-58
2022/12/06 03:21:16;;;;;;;2.40;0.98;;;;;;;9.34;69.46;100657.63;18434626;32;20409;-57
2022/12/06 03:31:21;;;;;;;0.57;0.57;;;;;;;8.36;72.88;100621.19;18432793;32;20090;-57
2022/12/06 03:41:27;;;;;;;1.55;1.45;;;;;;;8.73;71.34;100620.69;18433973;32;20390;-57
2022/12/06 03:51:33;;;;;;;0.75;0.62;;;;;;;7.23;77.79;100592.06;18432745;32;20453;-58
2022/12/06 04:01:37;;;;;;;0.85;0.85;;;;;;;7.03;78.22;100548.50;18432409;32;20199;-58
2022/12/06 04:11:41;;;;;;;0.60;0.60;;;;;;;8.27;73.49;100538.72;18431849;32;20090;-58
2022/12/06 04:52:50;;;;;;;2.03;1.92;;;;;;;8.89;70.14;100574.81;18494868;32;20313;-58
2022/12/06 05:02:53;;;;;;;1.10;1.10;;;;;;;8.89;70.25;100577.44;18494061;32;20213;-58
2022/12/06 05:12:57;;;;;;;0.70;0.70;;;;;;;8.96;70.03;100599.16;18494009;32;20117;-58
2022/12/06 05:23:01;;;;;;;0.50;0.50;;;;;;;9.05;69.86;100580.16;18497020;32;20451;-57
2022/12/06 05:33:05;;;;;;;0.50;0.50;;;;;;;7.29;76.48;100549.72;18436564;32;20112;-58
2022/12/06 05:43:08;;;;;;;0.80;0.80;;;;;;;8.66;71.65;100566.84;18492738;32;20081;-58
2022/12/06 05:53:13;;;;;;;0.80;0.80;;;;;;;8.79;70.91;100558.28;18454115;32;20425;-58
2022/12/06 06:03:16;;;;;;;1.17;1.00;;;;;;;8.87;70.64;100571.34;18473734;32;20131;-58
2022/12/06 06:13:21;;;;;;;0.60;0.60;;;;;;;8.70;70.84;100548.66;18444192;32;20085;-58
2022/12/06 06:23:25;;;;;;;7.78;4.65;;;;;;;9.00;69.88;100546.28;18478774;32;20109;-58
2022/12/06 06:33:31;;;;;;;5.60;5.12;;;;;;;8.83;69.85;100548.78;18498386;32;20092;-58
2022/12/06 06:43:34;;;;;;;0.90;0.90;;;;;;;8.86;69.61;100531.41;18465136;32;20107;-58
2022/12/06 06:53:39;;;;;;;0.77;0.75;;;;;;;8.85;69.99;100531.41;18440602;32;20700;-58
2022/12/06 07:03:42;;;;;;;13.85;1.35;;;;;;;8.87;69.96;100524.50;18432182;32;20742;-57
2022/12/06 07:13:47;;;;;;;0.50;0.50;;;;;;;8.84;70.17;100521.87;18438203;32;20096;-58
2022/12/06 07:23:54;;;;;;;1.48;1.37;;;;;;;8.84;70.22;100524.47;18458624;32;20406;-58
2022/12/06 07:34:01;;;;;;;0.80;0.80;;;;;;;8.90;69.75;100506.28;18437980;32;20097;-58
2022/12/06 07:54:26;;;;;;;0.73;0.65;;;;;;;8.85;69.90;100540.09;18431452;32;20136;-58
2022/12/06 08:04:29;;;;;;;0.80;0.80;;;;;;;8.74;70.52;100529.63;18397153;32;20081;-58
2022/12/06 08:14:34;;;;;;;0.90;0.90;;;;;;;8.86;70.02;100515.78;18431636;32;20136;-58
2022/12/06 08:24:37;;;;;;;0.82;0.82;;;;;;;8.99;69.65;100514.13;18469893;32;20142;-58
2022/12/06 08:34:42;;;;;;;0.52;0.52;;;;;;;9.07;70.00;100524.63;18478392;32;20141;-58
2022/12/06 08:44:50;;;;;;;0.65;0.65;;;;;;;9.22;69.68;100530.78;18429869;32;20077;-58
2022/12/06 08:54:55;;;;;;;0.52;0.52;;;;;;;9.27;69.61;100535.13;18427817;32;20085;-58
2022/12/06 09:04:58;;;;;;;2.92;2.45;;;;;;;9.33;69.37;100534.28;18425212;32;20254;-58
2022/12/06 09:15:02;;;;;;;0.80;0.80;;;;;;;9.60;69.13;100542.25;18438450;32;20097;-57
2022/12/06 09:25:06;;;;;;;0.68;0.68;;;;;;;9.84;70.29;100531.91;18441889;32;20429;-59
2022/12/06 09:35:11;;;;;;;0.52;0.52;;;;;;;10.03;65.17;100524.13;18449047;32;20121;-57
2022/12/06 09:45:40;;;;;;;0.60;0.60;;;;;;;9.89;63.89;100520.62;18459810;32;20092;-58
2022/12/06 09:55:56;;;;;;;0.43;0.43;;;;;;;9.89;65.35;100521.47;18490471;32;20138;-58
2022/12/06 10:06:01;;;;;;;0.43;0.43;;;;;;;9.80;63.85;100518.84;18463735;32;20484;-58
2022/12/06 10:16:15;;;;;;;1.12;1.05;;;;;;;9.53;64.33;100520.47;18463718;32;20163;-58
2022/12/06 10:26:23;;;;;;;0.45;0.45;;;;;;;9.79;64.03;100502.34;18479366;32;20102;-58
2022/12/06 10:36:41;;;;;;;0.65;0.65;;;;;;;9.94;64.46;100498.00;18490363;32;20115;-58
2022/12/06 10:47:03;;;;;;;0.40;0.40;;;;;;;10.23;61.59;100482.41;18441765;32;20088;-58
2022/12/06 10:57:14;;;;;;;1.12;1.12;;;;;;;9.98;60.60;100471.09;18446145;32;20089;-58
2022/12/06 11:07:20;;;;;;;0.30;0.30;;;;;;;10.22;60.75;100456.31;18437923;32;20097;-58
2022/12/06 11:17:27;;;;;;;0.50;0.50;;;;;;;10.14;59.58;100449.34;18472230;32;20107;-58
2022/12/06 11:27:33;;;;;;;0.40;0.40;;;;;;;10.12;58.95;100448.47;18431090;32;20140;-58
2022/12/06 11:37:38;;;;;;;0.30;0.30;;;;;;;10.07;59.80;100437.19;18468398;32;20151;-58
2022/12/06 11:47:46;;;;;;;0.57;0.57;;;;;;;10.12;58.52;100435.44;18479981;32;20111;-58
2022/12/06 11:57:53;;;;;;;0.60;0.60;;;;;;;9.80;58.79;100430.19;18463716;32;20097;-58
2022/12/06 12:07:58;;;;;;;0.60;0.60;;;;;;;9.49;58.60;100424.94;18443110;32;20118;-58
2022/12/06 12:18:04;;;;;;;0.50;0.50;;;;;;;9.55;58.32;100423.19;18494064;32;20425;-58
2022/12/06 12:28:23;;;;;;;0.50;0.50;;;;;;;9.42;59.03;100434.47;18449692;32;20101;-58
2022/12/06 12:38:38;;;;;;;0.50;0.50;;;;;;;9.37;58.22;100431.84;18460840;32;20365;-58
2022/12/06 12:48:43;;;;;;;0.70;0.70;;;;;;;9.67;56.17;100429.31;18364778;32;20390;-58
2022/12/06 12:58:50;;;;;;;0.50;0.50;;;;;;;9.44;56.78;100431.00;18406191;32;20113;-59
2022/12/06 13:08:55;;;;;;;0.68;0.68;;;;;;;9.48;56.45;100434.47;18441124;32;20101;-58
2022/12/06 13:19:00;;;;;;;0.43;0.43;;;;;;;9.55;56.91;100423.19;18468099;32;20111;-58
2022/12/06 13:29:07;;;;;;;0.75;0.75;;;;;;;9.48;56.41;100428.41;18455551;32;20104;-58
2022/12/06 13:39:37;;;;;;;0.50;0.50;;;;;;;9.30;56.43;100420.56;18473957;32;20137;-58
2022/12/06 13:49:43;;;;;;;0.40;0.40;;;;;;;9.64;56.87;100424.09;18454691;32;20137;-58
2022/12/06 13:59:53;;;;;;;0.60;0.60;;;;;;;9.56;56.18;100431.91;18498855;32;20147;-58
2022/12/06 14:09:56;;;;;;;0.50;0.50;;;;;;;9.66;55.43;100432.78;18470810;32;20445;-58
2022/12/06 14:20:01;;;;;;;0.50;0.50;;;;;;;9.73;55.00;100421.50;18415162;32;20085;-58
2022/12/06 14:30:08;;;;;;;0.30;0.30;;;;;;;9.65;54.48;100416.28;18406409;32;20108;-58
2022/12/06 14:40:21;;;;;;;0.50;0.50;;;;;;;9.05;54.88;100434.31;18390271;32;20112;-58
2022/12/06 14:50:49;;;;;;;0.50;0.50;;;;;;;9.22;55.52;100437.88;18427911;32;20146;-58
2022/12/06 15:00:55;;;;;;;0.40;0.40;;;;;;;9.29;55.24;100437.03;18458293;32;20116;-58
2022/12/06 15:11:00;;;;;;;1.55;0.70;;;;;;;9.16;55.87;100453.47;18466016;32;20111;-58
2022/12/06 15:21:10;;;;;;;0.60;0.60;;;;;;;9.18;55.06;100456.94;18490151;32;20089;-58
2022/12/06 15:31:17;;;;;;;0.43;0.43;;;;;;;9.10;55.84;100462.12;18405519;32;20168;-58
2022/12/06 15:41:23;;;;;;;0.65;0.65;;;;;;;9.12;55.01;100459.53;18409388;32;20138;-58
2022/12/06 15:51:27;;;;;;;0.90;0.90;;;;;;;9.14;54.09;100457.81;18394299;32;20425;-58
2022/12/06 16:01:34;;;;;;;0.50;0.50;;;;;;;9.11;55.55;100468.22;18465277;32;20457;-58
2022/12/06 16:11:44;;;;;;;0.93;0.82;;;;;;;9.16;55.94;100469.09;18367343;32;20112;-58
2022/12/06 16:21:53;;;;;;;0.40;0.40;;;;;;;8.99;55.72;100464.66;18427227;32;81717;-58
2022/12/06 16:31:56;;;;;;;0.47;0.47;;;;;;;8.94;55.68;100458.59;18431498;32;20097;-58
2022/12/06 16:42:01;;;;;;;0.80;0.80;;;;;;;8.86;55.17;100475.88;18416539;32;20142;-58
2022/12/06 16:52:04;;;;;;;0.57;0.57;;;;;;;8.50;56.34;100477.34;18430062;32;20089;-58
2022/12/06 17:02:23;;;;;;;0.50;0.50;;;;;;;8.26;56.58;100482.34;18429513;32;20448;-58
2022/12/06 17:12:26;;;;;;;0.47;0.47;;;;;;;8.26;56.69;100468.50;18432901;32;20381;-58
2022/12/06 17:22:31;;;;;;;0.62;0.57;;;;;;;8.17;56.92;100472.75;18423905;32;20108;-58
2022/12/06 17:32:34;;;;;;;0.40;0.40;;;;;;;8.34;56.70;100469.41;18422476;32;20111;-58
2022/12/06 17:53:00;;;;;;;0.55;0.55;;;;;;;7.82;57.19;100478.47;18419555;32;20433;-58
2022/12/06 18:03:04;;;;;;;0.50;0.50;;;;;;;7.86;57.22;100469.00;18466904;32;20110;-58
2022/12/06 18:13:09;;;;;;;0.55;0.55;;;;;;;7.79;57.58;100488.84;18449308;32;20370;-58
2022/12/06 18:23:14;;;;;;;0.40;0.40;;;;;;;7.47;58.05;100468.56;18467418;32;20177;-61
2022/12/06 18:33:17;;;;;;;0.47;0.47;;;;;;;7.32;58.93;100471.84;18445756;32;20105;-61
2022/12/06 18:43:26;;;;;;;0.60;0.60;;;;;;;7.15;58.95;100464.72;18469972;32;20163;-61
2022/12/06 18:53:30;;;;;;;1.33;1.10;;;;;;;7.36;59.29;100474.50;18449394;32;20163;-58
2022/12/06 19:03:34;;;;;;;0.70;0.68;;;;;;;7.36;59.47;100460.66;18453719;32;20144;-59
2022/12/06 19:13:38;;;;;;;0.93;0.93;;;;;;;7.67;57.91;100471.41;18454587;32;20124;-58
2022/12/06 19:23:43;;;;;;;0.40;0.40;;;;;;;7.38;58.83;100471.06;18433416;32;20134;-59
2022/12/06 19:33:47;;;;;;;1.00;1.00;;;;;;;7.25;59.14;100473.50;18460989;32;20117;-58
2022/12/06 19:54:15;;;;;;;1.15;1.15;;;;;;;7.02;60.41;100473.19;18497394;32;20143;-58
2022/12/06 20:04:22;;;;;;;0.60;0.60;;;;;;;7.08;60.48;100470.69;18497134;32;20092;-58
2022/12/06 20:14:26;;;;;;;0.40;0.40;;;;;;;7.30;59.95;100464.06;18398269;32;20093;-58
2022/12/06 20:24:31;;;;;;;0.52;0.45;;;;;;;7.55;59.71;100451.34;18431899;32;20119;-58
2022/12/06 20:34:35;;;;;;;1.48;1.48;;;;;;;7.77;59.03;100451.56;18444008;32;20108;-59
2022/12/06 20:44:39;;;;;;;0.40;0.40;;;;;;;7.96;57.87;100454.34;18446322;32;20107;-58
2022/12/06 20:54:46;;;;;;;0.50;0.50;;;;;;;8.07;58.34;100436.25;18428191;32;20422;-58
2022/12/06 21:04:51;;;;;;;0.32;0.32;;;;;;;7.77;57.98;100443.75;18369609;32;20108;-58
2022/12/06 21:14:54;;;;;;;1.55;1.45;;;;;;;7.46;59.44;100454.72;18364352;32;20098;-58
2022/12/06 21:24:59;;;;;;;1.35;1.25;;;;;;;7.30;60.01;100447.59;18363615;32;20106;-58
2022/12/06 21:35:02;;;;;;;1.40;1.30;;;;;;;6.89;60.01;100452.28;18357459;32;20105;-58
2022/12/06 21:45:08;;;;;;;0.55;0.55;;;;;;;6.47;60.73;100480.19;18361967;32;20461;-58
2022/12/06 21:55:11;;;;;;;0.82;0.75;;;;;;;6.16;61.54;100484.84;18428374;32;20430;-58
2022/12/06 22:05:16;;;;;;;0.68;0.68;;;;;;;5.91;62.28;100484.41;18496861;32;20649;-58
2022/12/06 22:15:19;;;;;;;0.40;0.40;;;;;;;5.68;62.51;100484.84;18493605;32;20118;-58
2022/12/06 22:25:23;;;;;;;0.73;0.73;;;;;;;5.55;63.07;100485.44;18494775;32;20114;-58
2022/12/06 22:35:27;;;;;;;1.98;1.67;;;;;;;5.42;64.81;100481.75;18489171;32;20582;-58
2022/12/06 22:45:33;;;;;;;0.62;0.62;;;;;;;5.53;64.46;100467.28;18493571;32;20085;-59
2022/12/06 22:55:36;;;;;;;0.50;0.50;;;;;;;5.79;63.57;100463.47;18403765;32;20108;-58
2022/12/06 23:05:40;;;;;;;0.60;0.60;;;;;;;5.97;62.96;100461.22;18368261;32;20093;-58
2022/12/06 23:15:43;;;;;;;0.43;0.43;;;;;;;6.50;61.52;100448.25;18422924;32;20108;-58
2022/12/06 23:25:48;;;;;;;1.55;0.57;;;;;;;6.69;61.16;100439.00;18433258;32;20100;-58
2022/12/06 23:36:01;;;;;;;0.52;0.52;;;;;;;6.70;61.99;100427.78;18433090;32;20093;-58
2022/12/06 23:46:07;;;;;;;0.47;0.47;;;;;;;6.71;61.54;100450.28;18433186;32;20456;-58
2022/12/06 23:56:12;;;;;;;1.12;1.12;;;;;;;6.86;61.11;100449.63;18432804;32;20085;-58
